sensor_id;sensor_type;location;lat;lon;timestamp;temperature;humidity
27890;DHT22;15238;49.082;9.102;2023-09-12T00:00:39;18.10;99.90
27890;DHT22;15238;49.082;9.102;2023-09-12T00:02:40;18.10;99.90
27890;DHT22;15238;49.082;9.102;2023-09-12T00:04:40;18.10;99.90
27890;DHT22;15238;49.082;9.102;2023-09-12T00:06:41;18.00;99.90
27890;DHT22;15238;49.082;9.102;2023-09-12T00:08:41;18.00;99.90
27890;DHT22;15238;49.082;9.102;2023-09-12T00:10:42;18.00;99.90
27890;DHT22;15238;49.082;9.102;2023-09-12T00:12:43;18.00;99.90
27890;DHT22;15238;49.082;9.102;2023-09-12T00:14:43;18.00;99.90
27890;DHT22;15238;49.082;9.102;2023-09-12T00:16:44;18.00;99.90
27890;DHT22;15238;49.082;9.102;2023-09-12T00:18:44;17.90;99.90
27890;DHT22;15238;49.082;9.102;2023-09-12T00:20:45;17.80;99.90
27890;DHT22;15238;49.082;9.102;2023-09-12T00:22:46;17.70;99.90
27890;DHT22;15238;49.082;9.102;2023-09-12T00:24:46;17.70;99.90
27890;DHT22;15238;49.082;9.102;2023-09-12T00:26:47;17.60;99.90
27890;DHT22;15238;49.082;9.102;2023-09-12T00:28:50;17.70;99.90
27890;DHT22;15238;49.082;9.102;2023-09-12T00:30:57;17.70;99.90
27890;DHT22;15238;49.082;9.102;2023-09-12T00:32:57;17.70;99.90
27890;DHT22;15238;49.082;9.102;2023-09-12T00:34:58;17.60;99.90
27890;DHT22;15238;49.082;9.102;2023-09-12T00:36:58;17.70;99.90
27890;DHT22;15238;49.082;9.102;2023-09-12T00:39:05;17.60;99.90
27890;DHT22;15238;49.082;9.102;2023-09-12T00:41:08;17.60;99.90
27890;DHT22;15238;49.082;9.102;2023-09-12T00:43:11;17.60;99.90
27890;DHT22;15238;49.082;9.102;2023-09-12T00:45:15;17.70;99.90
27890;DHT22;15238;49.082;9.102;2023-09-12T00:47:15;17.60;99.90
27890;DHT22;15238;49.082;9.102;2023-09-12T00:49:17;17.60;99.90
27890;DHT22;15238;49.082;9.102;2023-09-12T00:51:18;17.60;99.90
27890;DHT22;15238;49.082;9.102;2023-09-12T00:53:21;17.60;99.90
27890;DHT22;15238;49.082;9.102;2023-09-12T00:55:21;17.60;99.90
27890;DHT22;15238;49.082;9.102;2023-09-12T00:57:22;17.50;99.90
27890;DHT22;15238;49.082;9.102;2023-09-12T00:59:23;17.60;99.90
27890;DHT22;15238;49.082;9.102;2023-09-12T01:01:27;17.50;99.90
27890;DHT22;15238;49.082;9.102;2023-09-12T01:03:31;17.50;99.90
27890;DHT22;15238;49.082;9.102;2023-09-12T01:05:35;17.50;99.90
27890;DHT22;15238;49.082;9.102;2023-09-12T01:07:36;17.50;99.90
27890;DHT22;15238;49.082;9.102;2023-09-12T01:09:37;17.50;99.90
27890;DHT22;15238;49.082;9.102;2023-09-12T01:11:37;17.50;99.90
27890;DHT22;15238;49.082;9.102;2023-09-12T01:13:38;17.50;99.90
27890;DHT22;15238;49.082;9.102;2023-09-12T01:15:41;17.50;99.90
27890;DHT22;15238;49.082;9.102;2023-09-12T01:17:43;17.50;99.90
27890;DHT22;15238;49.082;9.102;2023-09-12T01:19:43;17.50;99.90
27890;DHT22;15238;49.082;9.102;2023-09-12T01:22:03;17.50;99.90
27890;DHT22;15238;49.082;9.102;2023-09-12T01:27:25;17.50;99.90
27890;DHT22;15238;49.082;9.102;2023-09-12T01:29:27;17.50;99.90
27890;DHT22;15238;49.082;9.102;2023-09-12T01:31:37;17.30;99.90
27890;DHT22;15238;49.082;9.102;2023-09-12T01:33:37;17.20;99.90
27890;DHT22;15238;49.082;9.102;2023-09-12T01:35:41;17.20;99.90
27890;DHT22;15238;49.082;9.102;2023-09-12T01:37:47;17.10;99.90
27890;DHT22;15238;49.082;9.102;2023-09-12T01:39:48;17.00;99.90
27890;DHT22;15238;49.082;9.102;2023-09-12T01:41:49;16.90;99.90
27890;DHT22;15238;49.082;9.102;2023-09-12T01:43:52;17.00;99.90
27890;DHT22;15238;49.082;9.102;2023-09-12T01:45:55;17.10;99.90
27890;DHT22;15238;49.082;9.102;2023-09-12T01:48:00;17.10;99.90
27890;DHT22;15238;49.082;9.102;2023-09-12T01:50:02;17.10;99.90
27890;DHT22;15238;49.082;9.102;2023-09-12T01:52:03;17.20;99.90
27890;DHT22;15238;49.082;9.102;2023-09-12T01:54:04;17.20;99.90
27890;DHT22;15238;49.082;9.102;2023-09-12T01:56:06;17.10;99.90
27890;DHT22;15238;49.082;9.102;2023-09-12T01:58:07;17.00;99.90
27890;DHT22;15238;49.082;9.102;2023-09-12T02:00:09;16.90;99.90
27890;DHT22;15238;49.082;9.102;2023-09-12T02:02:16;16.90;99.90
27890;DHT22;15238;49.082;9.102;2023-09-12T02:04:20;16.80;99.90
27890;DHT22;15238;49.082;9.102;2023-09-12T02:06:26;16.90;99.90
27890;DHT22;15238;49.082;9.102;2023-09-12T02:08:27;17.00;99.90
27890;DHT22;15238;49.082;9.102;2023-09-12T02:10:27;17.00;99.90
27890;DHT22;15238;49.082;9.102;2023-09-12T02:12:28;17.00;99.90
27890;DHT22;15238;49.082;9.102;2023-09-12T02:14:28;16.90;99.90
27890;DHT22;15238;49.082;9.102;2023-09-12T02:16:30;16.80;99.90
27890;DHT22;15238;49.082;9.102;2023-09-12T02:18:31;16.80;99.90
27890;DHT22;15238;49.082;9.102;2023-09-12T02:20:32;16.70;99.90
27890;DHT22;15238;49.082;9.102;2023-09-12T02:22:32;16.60;99.90
27890;DHT22;15238;49.082;9.102;2023-09-12T02:24:34;16.60;99.90
27890;DHT22;15238;49.082;9.102;2023-09-12T02:26:35;16.70;99.90
27890;DHT22;15238;49.082;9.102;2023-09-12T02:28:36;16.70;99.90
27890;DHT22;15238;49.082;9.102;2023-09-12T02:30:39;16.70;99.90
27890;DHT22;15238;49.082;9.102;2023-09-12T02:32:45;16.70;99.90
27890;DHT22;15238;49.082;9.102;2023-09-12T02:34:46;16.70;99.90
27890;DHT22;15238;49.082;9.102;2023-09-12T02:36:49;16.60;99.90
27890;DHT22;15238;49.082;9.102;2023-09-12T02:38:50;16.60;99.90
27890;DHT22;15238;49.082;9.102;2023-09-12T02:40:50;16.60;99.90
27890;DHT22;15238;49.082;9.102;2023-09-12T02:42:51;16.60;99.90
27890;DHT22;15238;49.082;9.102;2023-09-12T02:44:54;16.60;99.90
27890;DHT22;15238;49.082;9.102;2023-09-12T02:47:02;16.60;99.90
27890;DHT22;15238;49.082;9.102;2023-09-12T02:49:03;16.60;99.90
27890;DHT22;15238;49.082;9.102;2023-09-12T02:51:06;16.70;99.90
27890;DHT22;15238;49.082;9.102;2023-09-12T02:53:07;16.70;99.90
27890;DHT22;15238;49.082;9.102;2023-09-12T02:55:07;16.70;99.90
27890;DHT22;15238;49.082;9.102;2023-09-12T02:57:08;16.70;99.90
27890;DHT22;15238;49.082;9.102;2023-09-12T02:59:08;16.70;99.90
27890;DHT22;15238;49.082;9.102;2023-09-12T03:01:15;16.60;99.90
27890;DHT22;15238;49.082;9.102;2023-09-12T03:03:22;16.60;99.90
27890;DHT22;15238;49.082;9.102;2023-09-12T03:05:26;16.50;99.90
27890;DHT22;15238;49.082;9.102;2023-09-12T03:07:29;16.30;99.90
27890;DHT22;15238;49.082;9.102;2023-09-12T03:09:30;16.30;99.90
27890;DHT22;15238;49.082;9.102;2023-09-12T03:11:31;16.30;99.90
27890;DHT22;15238;49.082;9.102;2023-09-12T03:13:36;16.30;99.90
27890;DHT22;15238;49.082;9.102;2023-09-12T03:15:36;16.40;99.90
27890;DHT22;15238;49.082;9.102;2023-09-12T03:17:41;16.40;99.90
27890;DHT22;15238;49.082;9.102;2023-09-12T03:19:41;16.40;99.90
27890;DHT22;15238;49.082;9.102;2023-09-12T03:21:42;16.40;99.90
27890;DHT22;15238;49.082;9.102;2023-09-12T03:23:42;16.40;99.90
27890;DHT22;15238;49.082;9.102;2023-09-12T03:25:43;16.50;99.90
27890;DHT22;15238;49.082;9.102;2023-09-12T03:27:43;16.50;99.90
27890;DHT22;15238;49.082;9.102;2023-09-12T03:29:47;16.50;99.90
27890;DHT22;15238;49.082;9.102;2023-09-12T03:31:54;16.50;99.90
27890;DHT22;15238;49.082;9.102;2023-09-12T03:33:54;16.60;99.90
27890;DHT22;15238;49.082;9.102;2023-09-12T03:35:55;16.60;99.90
27890;DHT22;15238;49.082;9.102;2023-09-12T03:37:59;16.60;99.90
27890;DHT22;15238;49.082;9.102;2023-09-12T03:39:59;16.60;99.90
27890;DHT22;15238;49.082;9.102;2023-09-12T03:42:00;16.60;99.90
27890;DHT22;15238;49.082;9.102;2023-09-12T03:44:03;16.60;99.90
27890;DHT22;15238;49.082;9.102;2023-09-12T03:46:04;16.50;99.90
27890;DHT22;15238;49.082;9.102;2023-09-12T03:48:07;16.60;99.90
27890;DHT22;15238;49.082;9.102;2023-09-12T03:50:08;16.60;99.90
27890;DHT22;15238;49.082;9.102;2023-09-12T03:52:09;16.60;99.90
27890;DHT22;15238;49.082;9.102;2023-09-12T03:54:09;16.60;99.90
27890;DHT22;15238;49.082;9.102;2023-09-12T03:56:10;16.70;99.90
27890;DHT22;15238;49.082;9.102;2023-09-12T03:58:12;16.60;99.90
27890;DHT22;15238;49.082;9.102;2023-09-12T04:00:13;16.60;99.90
27890;DHT22;15238;49.082;9.102;2023-09-12T04:02:14;16.60;99.90
27890;DHT22;15238;49.082;9.102;2023-09-12T04:04:14;16.60;99.90
27890;DHT22;15238;49.082;9.102;2023-09-12T04:06:15;16.50;99.90
27890;DHT22;15238;49.082;9.102;2023-09-12T04:08:15;16.40;99.90
27890;DHT22;15238;49.082;9.102;2023-09-12T04:10:17;16.30;99.90
27890;DHT22;15238;49.082;9.102;2023-09-12T04:12:19;16.30;99.90
27890;DHT22;15238;49.082;9.102;2023-09-12T04:14:22;16.40;99.90
27890;DHT22;15238;49.082;9.102;2023-09-12T04:16:22;16.50;99.90
27890;DHT22;15238;49.082;9.102;2023-09-12T04:18:29;16.60;99.90
27890;DHT22;15238;49.082;9.102;2023-09-12T04:20:29;16.60;99.90
27890;DHT22;15238;49.082;9.102;2023-09-12T04:22:33;16.70;99.90
27890;DHT22;15238;49.082;9.102;2023-09-12T04:24:34;16.70;99.90
27890;DHT22;15238;49.082;9.102;2023-09-12T04:26:34;16.70;99.90
27890;DHT22;15238;49.082;9.102;2023-09-12T04:28:38;16.80;99.90
27890;DHT22;15238;49.082;9.102;2023-09-12T04:30:41;16.80;99.90
27890;DHT22;15238;49.082;9.102;2023-09-12T04:32:45;16.80;99.90
27890;DHT22;15238;49.082;9.102;2023-09-12T04:34:45;16.90;99.90
27890;DHT22;15238;49.082;9.102;2023-09-12T04:36:46;16.90;99.90
27890;DHT22;15238;49.082;9.102;2023-09-12T04:38:46;16.90;99.90
27890;DHT22;15238;49.082;9.102;2023-09-12T04:40:54;17.00;99.90
27890;DHT22;15238;49.082;9.102;2023-09-12T04:42:54;17.00;99.90
27890;DHT22;15238;49.082;9.102;2023-09-12T04:44:55;17.10;99.90
27890;DHT22;15238;49.082;9.102;2023-09-12T04:46:55;17.10;99.90
27890;DHT22;15238;49.082;9.102;2023-09-12T04:48:59;17.10;99.90
27890;DHT22;15238;49.082;9.102;2023-09-12T04:51:02;17.20;99.90
27890;DHT22;15238;49.082;9.102;2023-09-12T04:53:03;17.20;99.90
27890;DHT22;15238;49.082;9.102;2023-09-12T04:55:04;17.20;99.90
27890;DHT22;15238;49.082;9.102;2023-09-12T04:57:08;17.30;99.90
27890;DHT22;15238;49.082;9.102;2023-09-12T04:59:11;17.20;99.90
27890;DHT22;15238;49.082;9.102;2023-09-12T05:01:15;17.20;99.90
27890;DHT22;15238;49.082;9.102;2023-09-12T05:03:16;17.10;99.90
27890;DHT22;15238;49.082;9.102;2023-09-12T05:05:17;17.10;99.90
27890;DHT22;15238;49.082;9.102;2023-09-12T05:07:20;17.00;99.90
27890;DHT22;15238;49.082;9.102;2023-09-12T05:09:21;16.90;99.90
27890;DHT22;15238;49.082;9.102;2023-09-12T05:11:22;17.00;99.90
27890;DHT22;15238;49.082;9.102;2023-09-12T05:13:24;17.00;99.90
27890;DHT22;15238;49.082;9.102;2023-09-12T05:15:24;17.00;99.90
27890;DHT22;15238;49.082;9.102;2023-09-12T05:17:25;17.00;99.90
27890;DHT22;15238;49.082;9.102;2023-09-12T05:19:25;17.10;99.90
27890;DHT22;15238;49.082;9.102;2023-09-12T05:21:26;17.20;99.90
27890;DHT22;15238;49.082;9.102;2023-09-12T05:23:27;17.20;99.90
27890;DHT22;15238;49.082;9.102;2023-09-12T05:25:28;17.20;99.90
27890;DHT22;15238;49.082;9.102;2023-09-12T05:27:28;17.20;99.90
27890;DHT22;15238;49.082;9.102;2023-09-12T05:29:29;17.20;99.90
27890;DHT22;15238;49.082;9.102;2023-09-12T05:31:29;17.20;99.90
27890;DHT22;15238;49.082;9.102;2023-09-12T05:33:34;17.30;99.90
27890;DHT22;15238;49.082;9.102;2023-09-12T05:35:35;17.30;99.90
27890;DHT22;15238;49.082;9.102;2023-09-12T05:37:39;17.20;99.90
27890;DHT22;15238;49.082;9.102;2023-09-12T05:39:40;17.30;99.90
27890;DHT22;15238;49.082;9.102;2023-09-12T05:41:44;17.30;99.90
27890;DHT22;15238;49.082;9.102;2023-09-12T05:43:47;17.30;99.90
27890;DHT22;15238;49.082;9.102;2023-09-12T05:45:52;17.30;99.90
27890;DHT22;15238;49.082;9.102;2023-09-12T05:47:53;17.50;99.90
27890;DHT22;15238;49.082;9.102;2023-09-12T05:49:53;17.50;99.90
27890;DHT22;15238;49.082;9.102;2023-09-12T05:51:54;17.60;99.90
27890;DHT22;15238;49.082;9.102;2023-09-12T05:53:54;17.70;99.90
27890;DHT22;15238;49.082;9.102;2023-09-12T05:55:55;17.80;99.90
27890;DHT22;15238;49.082;9.102;2023-09-12T05:57:56;17.90;99.90
27890;DHT22;15238;49.082;9.102;2023-09-12T05:59:56;18.00;99.90
27890;DHT22;15238;49.082;9.102;2023-09-12T06:01:57;18.10;99.90
27890;DHT22;15238;49.082;9.102;2023-09-12T06:03:57;18.20;99.90
27890;DHT22;15238;49.082;9.102;2023-09-12T06:05:58;18.20;99.90
27890;DHT22;15238;49.082;9.102;2023-09-12T06:07:58;18.40;99.90
27890;DHT22;15238;49.082;9.102;2023-09-12T06:09:58;18.50;99.90
27890;DHT22;15238;49.082;9.102;2023-09-12T06:11:59;18.60;99.90
27890;DHT22;15238;49.082;9.102;2023-09-12T06:13:59;18.70;99.90
27890;DHT22;15238;49.082;9.102;2023-09-12T06:16:00;18.80;99.90
27890;DHT22;15238;49.082;9.102;2023-09-12T06:18:00;19.00;99.90
27890;DHT22;15238;49.082;9.102;2023-09-12T06:20:01;19.10;99.90
27890;DHT22;15238;49.082;9.102;2023-09-12T06:22:03;19.20;99.90
27890;DHT22;15238;49.082;9.102;2023-09-12T06:26:09;19.40;99.90
27890;DHT22;15238;49.082;9.102;2023-09-12T06:28:09;19.40;99.90
27890;DHT22;15238;49.082;9.102;2023-09-12T06:30:13;19.50;99.90
27890;DHT22;15238;49.082;9.102;2023-09-12T06:32:22;19.60;99.90
27890;DHT22;15238;49.082;9.102;2023-09-12T06:34:23;19.70;99.90
27890;DHT22;15238;49.082;9.102;2023-09-12T06:36:27;19.70;99.90
27890;DHT22;15238;49.082;9.102;2023-09-12T06:38:29;19.80;99.90
27890;DHT22;15238;49.082;9.102;2023-09-12T06:40:30;19.90;99.90
27890;DHT22;15238;49.082;9.102;2023-09-12T06:42:30;20.00;99.90
27890;DHT22;15238;49.082;9.102;2023-09-12T06:44:31;20.10;99.90
27890;DHT22;15238;49.082;9.102;2023-09-12T06:46:32;20.20;99.90
27890;DHT22;15238;49.082;9.102;2023-09-12T06:48:36;20.20;99.90
27890;DHT22;15238;49.082;9.102;2023-09-12T06:50:36;20.30;99.90
27890;DHT22;15238;49.082;9.102;2023-09-12T06:52:38;20.30;99.90
27890;DHT22;15238;49.082;9.102;2023-09-12T06:54:39;20.40;99.90
27890;DHT22;15238;49.082;9.102;2023-09-12T06:56:39;20.40;99.90
27890;DHT22;15238;49.082;9.102;2023-09-12T06:58:42;20.50;99.90
27890;DHT22;15238;49.082;9.102;2023-09-12T07:00:43;20.60;99.90
27890;DHT22;15238;49.082;9.102;2023-09-12T07:02:43;20.70;99.90
27890;DHT22;15238;49.082;9.102;2023-09-12T07:04:44;20.70;99.90
27890;DHT22;15238;49.082;9.102;2023-09-12T07:06:44;20.70;99.90
27890;DHT22;15238;49.082;9.102;2023-09-12T07:08:48;20.80;99.90
27890;DHT22;15238;49.082;9.102;2023-09-12T07:10:49;20.80;99.90
27890;DHT22;15238;49.082;9.102;2023-09-12T07:12:49;20.90;99.90
27890;DHT22;15238;49.082;9.102;2023-09-12T07:14:50;20.90;99.90
27890;DHT22;15238;49.082;9.102;2023-09-12T07:16:52;21.00;99.90
27890;DHT22;15238;49.082;9.102;2023-09-12T07:18:52;21.00;99.90
27890;DHT22;15238;49.082;9.102;2023-09-12T07:21:00;21.00;99.90
27890;DHT22;15238;49.082;9.102;2023-09-12T07:23:01;21.00;99.90
27890;DHT22;15238;49.082;9.102;2023-09-12T07:25:01;21.10;99.90
27890;DHT22;15238;49.082;9.102;2023-09-12T07:27:02;21.00;99.90
27890;DHT22;15238;49.082;9.102;2023-09-12T07:29:03;20.90;99.90
27890;DHT22;15238;49.082;9.102;2023-09-12T07:31:05;20.90;99.90
27890;DHT22;15238;49.082;9.102;2023-09-12T07:33:06;20.90;99.90
27890;DHT22;15238;49.082;9.102;2023-09-12T07:35:07;21.00;99.90
27890;DHT22;15238;49.082;9.102;2023-09-12T07:37:07;21.10;99.90
27890;DHT22;15238;49.082;9.102;2023-09-12T07:39:08;21.20;99.90
27890;DHT22;15238;49.082;9.102;2023-09-12T07:41:08;21.40;99.90
27890;DHT22;15238;49.082;9.102;2023-09-12T07:43:09;21.70;99.90
27890;DHT22;15238;49.082;9.102;2023-09-12T07:45:10;21.80;99.90
27890;DHT22;15238;49.082;9.102;2023-09-12T07:47:12;22.10;99.90
27890;DHT22;15238;49.082;9.102;2023-09-12T07:49:12;22.30;99.90
27890;DHT22;15238;49.082;9.102;2023-09-12T07:51:14;22.40;99.90
27890;DHT22;15238;49.082;9.102;2023-09-12T07:53:18;22.50;99.90
27890;DHT22;15238;49.082;9.102;2023-09-12T07:55:18;22.70;99.90
27890;DHT22;15238;49.082;9.102;2023-09-12T07:57:19;22.80;99.90
27890;DHT22;15238;49.082;9.102;2023-09-12T07:59:20;22.90;99.90
27890;DHT22;15238;49.082;9.102;2023-09-12T08:01:20;23.00;99.90
27890;DHT22;15238;49.082;9.102;2023-09-12T08:03:21;23.10;99.90
27890;DHT22;15238;49.082;9.102;2023-09-12T08:05:21;23.30;99.90
27890;DHT22;15238;49.082;9.102;2023-09-12T08:07:21;23.40;99.90
27890;DHT22;15238;49.082;9.102;2023-09-12T08:09:22;23.40;99.90
27890;DHT22;15238;49.082;9.102;2023-09-12T08:11:22;23.50;99.90
27890;DHT22;15238;49.082;9.102;2023-09-12T08:13:26;23.50;99.90
27890;DHT22;15238;49.082;9.102;2023-09-12T08:15:27;23.70;99.90
27890;DHT22;15238;49.082;9.102;2023-09-12T08:17:28;23.90;99.90
27890;DHT22;15238;49.082;9.102;2023-09-12T08:19:28;24.10;99.90
27890;DHT22;15238;49.082;9.102;2023-09-12T08:21:29;24.30;99.90
27890;DHT22;15238;49.082;9.102;2023-09-12T08:23:30;24.40;99.90
27890;DHT22;15238;49.082;9.102;2023-09-12T08:25:30;24.60;99.90
27890;DHT22;15238;49.082;9.102;2023-09-12T08:27:31;24.70;99.90
27890;DHT22;15238;49.082;9.102;2023-09-12T08:29:32;24.90;99.90
27890;DHT22;15238;49.082;9.102;2023-09-12T08:31:33;25.00;99.90
27890;DHT22;15238;49.082;9.102;2023-09-12T08:33:33;25.20;99.90
27890;DHT22;15238;49.082;9.102;2023-09-12T08:35:34;25.40;99.90
27890;DHT22;15238;49.082;9.102;2023-09-12T08:37:34;25.50;99.90
27890;DHT22;15238;49.082;9.102;2023-09-12T08:39:45;25.60;99.90
27890;DHT22;15238;49.082;9.102;2023-09-12T08:41:45;25.80;99.90
27890;DHT22;15238;49.082;9.102;2023-09-12T08:43:49;25.90;99.90
27890;DHT22;15238;49.082;9.102;2023-09-12T08:45:50;26.00;99.90
27890;DHT22;15238;49.082;9.102;2023-09-12T08:47:53;26.20;99.90
27890;DHT22;15238;49.082;9.102;2023-09-12T08:49:54;26.30;99.90
27890;DHT22;15238;49.082;9.102;2023-09-12T08:51:55;26.40;99.90
27890;DHT22;15238;49.082;9.102;2023-09-12T08:53:56;26.50;99.90
27890;DHT22;15238;49.082;9.102;2023-09-12T08:55:57;26.70;99.90
27890;DHT22;15238;49.082;9.102;2023-09-12T08:57:58;26.90;99.90
27890;DHT22;15238;49.082;9.102;2023-09-12T09:00:03;26.90;99.90
27890;DHT22;15238;49.082;9.102;2023-09-12T09:02:08;26.90;99.90
27890;DHT22;15238;49.082;9.102;2023-09-12T09:04:09;27.10;99.90
27890;DHT22;15238;49.082;9.102;2023-09-12T09:06:10;27.30;99.90
27890;DHT22;15238;49.082;9.102;2023-09-12T09:08:12;27.40;99.90
27890;DHT22;15238;49.082;9.102;2023-09-12T09:10:17;27.30;99.90
27890;DHT22;15238;49.082;9.102;2023-09-12T09:12:19;27.30;99.90
27890;DHT22;15238;49.082;9.102;2023-09-12T09:14:20;27.40;99.90
27890;DHT22;15238;49.082;9.102;2023-09-12T09:16:21;27.50;99.90
27890;DHT22;15238;49.082;9.102;2023-09-12T09:18:22;27.70;99.90
27890;DHT22;15238;49.082;9.102;2023-09-12T09:20:26;27.70;99.80
27890;DHT22;15238;49.082;9.102;2023-09-12T09:22:27;27.80;99.40
27890;DHT22;15238;49.082;9.102;2023-09-12T09:24:27;27.90;99.80
27890;DHT22;15238;49.082;9.102;2023-09-12T09:26:45;28.20;99.40
27890;DHT22;15238;49.082;9.102;2023-09-12T09:28:59;28.00;99.10
27890;DHT22;15238;49.082;9.102;2023-09-12T09:31:00;27.70;99.50
27890;DHT22;15238;49.082;9.102;2023-09-12T09:33:02;27.40;99.90
27890;DHT22;15238;49.082;9.102;2023-09-12T09:35:03;27.60;99.90
27890;DHT22;15238;49.082;9.102;2023-09-12T09:37:04;27.70;99.60
27890;DHT22;15238;49.082;9.102;2023-09-12T09:39:05;27.80;99.60
27890;DHT22;15238;49.082;9.102;2023-09-12T09:41:06;28.00;98.90
27890;DHT22;15238;49.082;9.102;2023-09-12T09:43:07;27.70;99.30
27890;DHT22;15238;49.082;9.102;2023-09-12T09:45:08;27.60;99.50
27890;DHT22;15238;49.082;9.102;2023-09-12T09:47:08;27.70;99.80
27890;DHT22;15238;49.082;9.102;2023-09-12T09:49:15;27.80;99.60
27890;DHT22;15238;49.082;9.102;2023-09-12T09:51:16;28.20;98.60
27890;DHT22;15238;49.082;9.102;2023-09-12T09:53:16;28.00;98.50
27890;DHT22;15238;49.082;9.102;2023-09-12T09:55:19;27.90;99.00
27890;DHT22;15238;49.082;9.102;2023-09-12T09:57:19;28.10;98.90
27890;DHT22;15238;49.082;9.102;2023-09-12T09:59:27;28.30;98.50
27890;DHT22;15238;49.082;9.102;2023-09-12T10:01:29;28.50;98.10
27890;DHT22;15238;49.082;9.102;2023-09-12T10:03:32;28.70;97.80
27890;DHT22;15238;49.082;9.102;2023-09-12T10:05:37;28.80;97.60
27890;DHT22;15238;49.082;9.102;2023-09-12T10:07:38;29.10;97.10
27890;DHT22;15238;49.082;9.102;2023-09-12T10:09:40;29.20;97.00
27890;DHT22;15238;49.082;9.102;2023-09-12T10:11:43;29.00;97.00
27890;DHT22;15238;49.082;9.102;2023-09-12T10:13:49;28.70;97.20
27890;DHT22;15238;49.082;9.102;2023-09-12T10:15:52;29.00;96.80
27890;DHT22;15238;49.082;9.102;2023-09-12T10:17:58;29.20;96.30
27890;DHT22;15238;49.082;9.102;2023-09-12T10:20:05;29.20;96.00
27890;DHT22;15238;49.082;9.102;2023-09-12T10:22:14;29.30;96.30
27890;DHT22;15238;49.082;9.102;2023-09-12T10:24:19;29.40;96.10
27890;DHT22;15238;49.082;9.102;2023-09-12T10:26:21;29.40;96.00
27890;DHT22;15238;49.082;9.102;2023-09-12T10:28:22;29.50;95.80
27890;DHT22;15238;49.082;9.102;2023-09-12T10:30:24;29.60;95.80
27890;DHT22;15238;49.082;9.102;2023-09-12T10:32:26;29.70;95.80
27890;DHT22;15238;49.082;9.102;2023-09-12T10:34:30;29.70;95.70
27890;DHT22;15238;49.082;9.102;2023-09-12T10:36:32;29.60;95.40
27890;DHT22;15238;49.082;9.102;2023-09-12T10:38:45;29.20;95.20
27890;DHT22;15238;49.082;9.102;2023-09-12T10:40:47;29.30;95.80
27890;DHT22;15238;49.082;9.102;2023-09-12T10:42:49;29.40;95.80
27890;DHT22;15238;49.082;9.102;2023-09-12T10:44:51;29.40;95.00
27890;DHT22;15238;49.082;9.102;2023-09-12T10:46:53;29.50;94.70
27890;DHT22;15238;49.082;9.102;2023-09-12T10:48:54;29.60;94.60
27890;DHT22;15238;49.082;9.102;2023-09-12T10:50:58;29.70;95.10
27890;DHT22;15238;49.082;9.102;2023-09-12T10:53:12;29.60;94.20
27890;DHT22;15238;49.082;9.102;2023-09-12T10:55:17;29.60;94.60
27890;DHT22;15238;49.082;9.102;2023-09-12T10:57:21;29.50;94.60
27890;DHT22;15238;49.082;9.102;2023-09-12T10:59:21;29.70;94.60
27890;DHT22;15238;49.082;9.102;2023-09-12T11:01:25;29.70;94.40
27890;DHT22;15238;49.082;9.102;2023-09-12T11:07:31;29.50;94.70
27890;DHT22;15238;49.082;9.102;2023-09-12T11:09:33;29.60;94.80
27890;DHT22;15238;49.082;9.102;2023-09-12T11:11:33;29.90;94.10
27890;DHT22;15238;49.082;9.102;2023-09-12T11:13:38;30.10;93.80
27890;DHT22;15238;49.082;9.102;2023-09-12T11:16:11;30.10;93.80
27890;DHT22;15238;49.082;9.102;2023-09-12T11:18:12;30.10;93.60
27890;DHT22;15238;49.082;9.102;2023-09-12T11:20:14;30.20;93.90
27890;DHT22;15238;49.082;9.102;2023-09-12T11:22:28;30.40;94.00
27890;DHT22;15238;49.082;9.102;2023-09-12T11:24:43;30.70;93.40
27890;DHT22;15238;49.082;9.102;2023-09-12T11:26:57;30.80;92.60
27890;DHT22;15238;49.082;9.102;2023-09-12T11:29:10;30.80;93.00
27890;DHT22;15238;49.082;9.102;2023-09-12T11:31:24;30.80;91.80
27890;DHT22;15238;49.082;9.102;2023-09-12T11:33:26;30.80;91.90
27890;DHT22;15238;49.082;9.102;2023-09-12T11:35:28;30.80;92.50
27890;DHT22;15238;49.082;9.102;2023-09-12T11:37:29;30.70;91.80
27890;DHT22;15238;49.082;9.102;2023-09-12T11:39:35;30.80;91.90
27890;DHT22;15238;49.082;9.102;2023-09-12T11:41:42;30.80;91.90
27890;DHT22;15238;49.082;9.102;2023-09-12T11:43:42;31.10;91.60
27890;DHT22;15238;49.082;9.102;2023-09-12T11:45:44;31.10;91.50
27890;DHT22;15238;49.082;9.102;2023-09-12T11:47:46;31.30;91.20
27890;DHT22;15238;49.082;9.102;2023-09-12T11:49:47;31.30;91.00
27890;DHT22;15238;49.082;9.102;2023-09-12T11:51:49;31.10;91.10
27890;DHT22;15238;49.082;9.102;2023-09-12T11:53:50;31.30;90.20
27890;DHT22;15238;49.082;9.102;2023-09-12T11:55:54;31.10;90.80
27890;DHT22;15238;49.082;9.102;2023-09-12T11:57:55;31.30;90.30
27890;DHT22;15238;49.082;9.102;2023-09-12T11:59:56;31.30;89.60
27890;DHT22;15238;49.082;9.102;2023-09-12T12:01:56;31.50;90.00
27890;DHT22;15238;49.082;9.102;2023-09-12T12:03:57;31.40;89.00
27890;DHT22;15238;49.082;9.102;2023-09-12T12:05:58;31.50;90.20
27890;DHT22;15238;49.082;9.102;2023-09-12T12:07:59;31.10;90.00
27890;DHT22;15238;49.082;9.102;2023-09-12T12:10:00;31.10;90.50
27890;DHT22;15238;49.082;9.102;2023-09-12T12:12:13;31.00;90.00
27890;DHT22;15238;49.082;9.102;2023-09-12T12:14:16;30.80;90.40
27890;DHT22;15238;49.082;9.102;2023-09-12T12:16:17;30.50;90.10
27890;DHT22;15238;49.082;9.102;2023-09-12T12:18:18;30.20;89.90
27890;DHT22;15238;49.082;9.102;2023-09-12T12:20:18;30.00;90.60
27890;DHT22;15238;49.082;9.102;2023-09-12T12:22:19;29.80;90.40
27890;DHT22;15238;49.082;9.102;2023-09-12T12:24:19;29.80;90.80
27890;DHT22;15238;49.082;9.102;2023-09-12T12:26:20;29.70;91.00
27890;DHT22;15238;49.082;9.102;2023-09-12T12:28:21;29.60;91.40
27890;DHT22;15238;49.082;9.102;2023-09-12T12:30:21;29.60;92.20
27890;DHT22;15238;49.082;9.102;2023-09-12T12:32:22;29.60;92.10
27890;DHT22;15238;49.082;9.102;2023-09-12T12:34:23;29.50;91.80
27890;DHT22;15238;49.082;9.102;2023-09-12T12:36:23;29.60;92.30
27890;DHT22;15238;49.082;9.102;2023-09-12T12:38:24;29.60;91.70
27890;DHT22;15238;49.082;9.102;2023-09-12T12:40:24;29.70;91.50
27890;DHT22;15238;49.082;9.102;2023-09-12T12:42:33;29.80;91.60
27890;DHT22;15238;49.082;9.102;2023-09-12T12:44:33;29.90;90.70
27890;DHT22;15238;49.082;9.102;2023-09-12T12:46:51;30.20;90.30
27890;DHT22;15238;49.082;9.102;2023-09-12T12:48:52;30.60;89.90
27890;DHT22;15238;49.082;9.102;2023-09-12T12:50:53;30.90;88.40
27890;DHT22;15238;49.082;9.102;2023-09-12T12:52:56;31.10;86.00
27890;DHT22;15238;49.082;9.102;2023-09-12T12:57:09;31.10;84.80
27890;DHT22;15238;49.082;9.102;2023-09-12T12:59:12;31.10;84.90
27890;DHT22;15238;49.082;9.102;2023-09-12T13:01:13;31.00;85.60
27890;DHT22;15238;49.082;9.102;2023-09-12T13:03:14;31.00;85.00